Time;durP1;ratioP1;P1;durP2;ratioP2;P2;SDS_P1;SDS_P2;PMS_P1;PMS_P2;Temp;Humidity;BMP_temperature;BMP_pressure;BME280_temperature;BME280_humidity;BME280_pressure;Samples;Min_cycle;Max_cycle;Signal;HPM_P1;HPM_P2
2021/08/30 00:01:45;;;;;;;;;;;;;;;22.19;59.14;101630.91;5098346;27;19990;-73
2021/08/30 00:04:13;;;;;;;;;;;;;;;22.19;60.03;101634.50;5098655;27;20238;-72
2021/08/30 00:06:42;;;;;;;;;;;;;;;22.20;59.67;101629.97;5105349;27;19938;-73
2021/08/30 00:09:10;;;;;;;;;;;;;;;22.19;59.89;101630.91;5123818;27;20002;-72
2021/08/30 00:11:38;;;;;;;;;;;;;;;22.19;59.42;101628.22;5093948;27;20381;-71
2021/08/30 00:14:06;;;;;;;;;;;;;;;22.19;59.32;101629.13;5106066;27;19928;-72
2021/08/30 00:16:34;;;;;;;;;;;;;;;22.20;59.04;101629.97;5097674;27;19971;-71
2021/08/30 00:19:03;;;;;;;;;;;;;;;22.19;58.79;101634.50;5102456;27;20725;-72
2021/08/30 00:21:31;;;;;;;;;;;;;;;22.19;58.62;101625.53;5090239;28;19924;-71
2021/08/30 00:23:59;;;;;;;;;;;;;;;22.18;58.81;101624.69;5095373;27;19932;-72
2021/08/30 00:26:27;;;;;;;;;;;;;;;22.20;58.84;101632.66;5103741;28;19936;-73
2021/08/30 00:28:55;;;;;;;;;;;;;;;22.20;59.16;101621.88;5097852;28;19934;-72
2021/08/30 00:31:25;;;;;;;;;;;;;;;22.21;59.02;101627.16;5104189;28;19935;-72
2021/08/30 00:33:54;;;;;;;;;;;;;;;22.22;58.95;101618.13;5090992;27;19931;-72
2021/08/30 00:36:25;;;;;;;;;;;;;;;22.22;59.02;101631.59;5099330;28;19936;-71
2021/08/30 00:38:54;;;;;;;;;;;;;;;22.21;59.04;101632.56;5102388;27;20417;-72
2021/08/30 00:41:22;;;;;;;;;;;;;;;22.22;59.23;101638.84;5104226;28;19923;-72
2021/08/30 00:43:51;;;;;;;;;;;;;;;22.23;59.41;101637.84;5100616;27;21145;-73
2021/08/30 00:46:19;;;;;;;;;;;;;;;22.22;59.23;101637.00;5101315;27;19937;-73
2021/08/30 00:48:47;;;;;;;;;;;;;;;22.23;59.25;101635.16;5099606;28;19924;-72
2021/08/30 00:51:15;;;;;;;;;;;;;;;22.23;58.96;101637.84;5106016;28;19928;-73
2021/08/30 00:53:46;;;;;;;;;;;;;;;22.21;58.82;101637.94;5101472;28;19932;-72
2021/08/30 00:56:14;;;;;;;;;;;;;;;22.21;58.34;101639.78;5109951;28;20044;-72
2021/08/30 00:58:43;;;;;;;;;;;;;;;22.21;58.08;101642.47;5101502;27;19923;-72
2021/08/30 01:01:11;;;;;;;;;;;;;;;22.21;58.56;101634.41;5095478;27;19927;-73
2021/08/30 01:03:40;;;;;;;;;;;;;;;22.21;58.14;101639.78;5096311;27;20384;-73
2021/08/30 01:06:13;;;;;;;;;;;;;;;22.21;58.21;101643.34;5100629;28;20026;-72
2021/08/30 01:08:47;;;;;;;;;;;;;;;22.22;58.59;101649.63;5102145;28;19935;-73
2021/08/30 01:11:19;;;;;;;;;;;;;;;22.22;58.63;101641.53;5099802;27;19943;-72
2021/08/30 01:13:51;;;;;;;;;;;;;;;22.22;58.61;101641.53;5092458;28;20109;-73
2021/08/30 01:16:21;;;;;;;;;;;;;;;22.24;58.92;101644.97;5097340;28;20015;-71
2021/08/30 01:18:50;;;;;;;;;;;;;;;22.26;58.87;101644.88;5098208;27;19999;-71
2021/08/30 01:21:20;;;;;;;;;;;;;;;22.25;59.18;101645.81;5101938;28;19924;-71
2021/08/30 01:23:51;;;;;;;;;;;;;;;22.26;58.63;101655.66;5102099;27;19939;-72
2021/08/30 01:26:21;;;;;;;;;;;;;;;22.25;58.65;101651.22;5094773;28;19931;-73
2021/08/30 01:28:54;;;;;;;;;;;;;;;22.26;58.62;101655.66;5095648;28;20031;-73
2021/08/30 01:31:26;;;;;;;;;;;;;;;22.24;58.55;101654.91;5097331;28;20028;-73
2021/08/30 01:33:56;;;;;;;;;;;;;;;22.25;58.78;101651.22;5098824;28;19991;-72
2021/08/30 01:36:25;;;;;;;;;;;;;;;22.26;58.99;101643.06;5096484;28;19931;-72
2021/08/30 01:38:58;;;;;;;;;;;;;;;22.25;58.47;101641.31;5102995;28;19928;-71
2021/08/30 01:41:27;;;;;;;;;;;;;;;22.25;58.91;101641.31;5099639;28;20446;-72
2021/08/30 01:43:56;;;;;;;;;;;;;;;22.26;58.51;101651.16;5097671;28;20055;-72
2021/08/30 01:46:25;;;;;;;;;;;;;;;22.26;58.82;101644.88;5097282;28;19938;-72
2021/08/30 01:48:54;;;;;;;;;;;;;;;22.25;58.40;101645.81;5094024;28;19935;-72
2021/08/30 01:51:25;;;;;;;;;;;;;;;22.26;59.16;101647.56;5099629;28;19985;-71
2021/08/30 01:53:55;;;;;;;;;;;;;;;22.26;58.48;101659.22;5117435;27;19928;-71
2021/08/30 01:56:26;;;;;;;;;;;;;;;22.26;58.91;101645.75;5095859;28;19923;-72
2021/08/30 02:01:41;;;;;;;;;;;;;;;22.27;59.04;101655.56;5101870;28;20169;-72
2021/08/30 02:04:09;;;;;;;;;;;;;;;22.27;59.04;101646.63;5098775;28;19935;-72
2021/08/30 02:06:39;;;;;;;;;;;;;;;22.28;58.94;101654.59;5098019;28;19934;-72
2021/08/30 02:09:07;;;;;;;;;;;;;;;22.28;59.22;101656.44;5096439;28;20451;-71
2021/08/30 02:11:35;;;;;;;;;;;;;;;22.28;58.64;101651.03;5093657;28;19970;-73
2021/08/30 02:14:07;;;;;;;;;;;;;;;22.27;58.74;101652.84;5100221;28;19932;-71
2021/08/30 02:16:35;;;;;;;;;;;;;;;22.26;58.85;101651.16;5094297;28;19978;-72
2021/08/30 02:19:06;;;;;;;;;;;;;;;22.27;58.80;101655.56;5100155;28;20340;-72
2021/08/30 02:21:36;;;;;;;;;;;;;;;22.27;58.78;101658.25;5096015;28;19928;-71
2021/08/30 02:24:08;;;;;;;;;;;;;;;22.26;58.22;101663.75;5100228;28;19932;-72
2021/08/30 02:26:40;;;;;;;;;;;;;;;22.27;58.12;101665.47;5092743;28;19936;-72
2021/08/30 02:29:09;;;;;;;;;;;;;;;22.27;58.46;101660.94;5096501;28;19977;-71
2021/08/30 02:31:38;;;;;;;;;;;;;;;22.27;58.36;101658.25;5097627;28;19935;-72
2021/08/30 02:34:07;;;;;;;;;;;;;;;22.26;58.62;101653.84;5102879;28;19939;-71
2021/08/30 02:36:35;;;;;;;;;;;;;;;22.27;58.17;101657.38;5099378;28;20361;-71
2021/08/30 02:39:06;;;;;;;;;;;;;;;22.26;58.51;101652.97;5097459;28;19931;-72
2021/08/30 02:41:35;;;;;;;;;;;;;;;22.26;58.40;101648.44;5100595;28;19928;-72
2021/08/30 02:44:04;;;;;;;;;;;;;;;22.26;58.14;101648.44;5096087;28;20532;-71
2021/08/30 02:46:32;;;;;;;;;;;;;;;22.26;58.39;101648.44;5097639;28;19932;-72
2021/08/30 02:49:02;;;;;;;;;;;;;;;22.28;58.48;101645.66;5097641;28;19985;-71
2021/08/30 02:51:30;;;;;;;;;;;;;;;22.28;58.75;101640.25;5099048;28;19950;-72
2021/08/30 02:53:59;;;;;;;;;;;;;;;22.28;58.90;101640.25;5085537;28;19927;-72
2021/08/30 02:56:29;;;;;;;;;;;;;;;22.29;58.71;101634.78;5096196;28;19932;-72
2021/08/30 02:58:57;;;;;;;;;;;;;;;22.29;58.68;101640.16;5102587;28;20426;-71
2021/08/30 03:01:26;;;;;;;;;;;;;;;22.30;58.83;101632.94;5100450;28;19945;-71
2021/08/30 03:03:55;;;;;;;;;;;;;;;22.29;58.60;101631.22;5096308;28;19939;-71
2021/08/30 03:06:24;;;;;;;;;;;;;;;22.29;58.80;101633.91;5099849;27;19931;-73
2021/08/30 03:08:52;;;;;;;;;;;;;;;22.29;58.47;101634.78;5100411;28;21126;-72
2021/08/30 03:11:22;;;;;;;;;;;;;;;22.29;58.34;101625.84;5104713;28;19932;-72
2021/08/30 03:13:54;;;;;;;;;;;;;;;22.29;58.38;101626.69;5096223;27;19927;-72
2021/08/30 03:16:24;;;;;;;;;;;;;;;22.28;58.60;101633.03;5095307;27;19959;-72
2021/08/30 03:18:53;;;;;;;;;;;;;;;22.29;58.09;101632.09;5097743;28;20355;-72
2021/08/30 03:21:24;;;;;;;;;;;;;;;22.30;58.48;101636.50;5097155;28;20484;-71
2021/08/30 03:23:53;;;;;;;;;;;;;;;22.30;58.22;101631.13;5091505;27;19931;-72
2021/08/30 03:26:22;;;;;;;;;;;;;;;22.30;57.94;101635.63;5099143;28;19943;-73
2021/08/30 03:28:50;;;;;;;;;;;;;;;22.29;57.92;101631.22;5106517;28;20038;-73
2021/08/30 03:31:21;;;;;;;;;;;;;;;22.28;58.39;101633.03;5099774;28;19949;-71
2021/08/30 03:33:50;;;;;;;;;;;;;;;22.28;58.15;101634.88;5095702;27;19932;-71
2021/08/30 03:36:18;;;;;;;;;;;;;;;22.29;58.38;101640.16;5093308;28;20192;-72
2021/08/30 03:38:47;;;;;;;;;;;;;;;22.29;58.35;101634.78;5096911;28;19935;-71
2021/08/30 03:41:16;;;;;;;;;;;;;;;22.29;57.99;101637.47;5099595;27;20314;-71
2021/08/30 03:43:45;;;;;;;;;;;;;;;22.28;58.45;101638.44;5098799;28;19931;-71
2021/08/30 03:46:14;;;;;;;;;;;;;;;22.29;58.28;101632.09;5097662;28;19935;-71
2021/08/30 03:48:44;;;;;;;;;;;;;;;22.30;58.66;101646.41;5091368;28;19979;-71
2021/08/30 03:51:12;;;;;;;;;;;;;;;22.29;58.20;101650.09;5093198;28;19953;-70
2021/08/30 03:53:41;;;;;;;;;;;;;;;22.29;58.15;101644.69;5100324;28;19927;-71
2021/08/30 03:56:10;;;;;;;;;;;;;;;22.29;58.17;101652.78;5095454;28;19932;-72
2021/08/30 03:58:39;;;;;;;;;;;;;;;22.29;57.72;101650.94;5100708;28;20292;-72
2021/08/30 04:01:09;;;;;;;;;;;;;;;22.29;57.62;101652.78;5095700;28;20570;-72
2021/08/30 04:03:39;;;;;;;;;;;;;;;22.27;57.39;101642.06;5091098;27;19993;-72
2021/08/30 04:06:09;;;;;;;;;;;;;;;22.29;57.95;101652.78;5094348;28;19924;-72
2021/08/30 04:08:38;;;;;;;;;;;;;;;22.28;57.86;101651.03;5101810;28;19927;-73
2021/08/30 04:11:09;;;;;;;;;;;;;;;22.27;57.57;101652.84;5098145;28;20306;-72
2021/08/30 04:13:37;;;;;;;;;;;;;;;22.28;57.64;101664.53;5097931;28;19931;-72
2021/08/30 04:16:06;;;;;;;;;;;;;;;22.28;57.65;101664.53;5092242;28;19928;-72
2021/08/30 04:18:34;;;;;;;;;;;;;;;22.27;57.62;101671.72;5086051;27;19978;-73
2021/08/30 04:21:02;;;;;;;;;;;;;;;22.27;57.48;101674.41;5096366;28;19924;-73
2021/08/30 04:23:31;;;;;;;;;;;;;;;22.26;57.57;101663.75;5097489;27;19932;-73
2021/08/30 04:25:59;;;;;;;;;;;;;;;22.25;57.54;101673.66;5099016;28;19928;-72
2021/08/30 04:28:29;;;;;;;;;;;;;;;22.25;57.68;101670.97;5092215;27;19939;-72
2021/08/30 04:30:57;;;;;;;;;;;;;;;22.26;57.27;101666.44;5091370;28;20315;-72
2021/08/30 04:33:25;;;;;;;;;;;;;;;22.26;57.47;101677.22;5093045;27;19931;-72
2021/08/30 04:35:53;;;;;;;;;;;;;;;22.25;57.15;101679.06;5094827;28;19943;-72
2021/08/30 04:38:21;;;;;;;;;;;;;;;22.26;57.51;101677.22;5095435;27;20209;-72
2021/08/30 04:40:50;;;;;;;;;;;;;;;22.26;57.00;101679.91;5098329;28;19971;-72
2021/08/30 04:43:18;;;;;;;;;;;;;;;22.26;57.11;101685.28;5096711;28;19958;-72
2021/08/30 04:45:46;;;;;;;;;;;;;;;22.25;57.52;101681.75;5092096;27;19983;-72
2021/08/30 04:48:14;;;;;;;;;;;;;;;22.26;57.58;101685.28;5091091;27;19999;-72
2021/08/30 04:50:43;;;;;;;;;;;;;;;22.26;57.59;101679.91;5094659;28;19963;-72
2021/08/30 04:53:11;;;;;;;;;;;;;;;22.27;57.58;101684.34;5100660;28;19932;-72
2021/08/30 04:55:39;;;;;;;;;;;;;;;22.26;57.40;101691.56;5100462;27;19930;-72
2021/08/30 04:58:11;;;;;;;;;;;;;;;22.26;57.35;101694.28;5098611;27;19924;-71
2021/08/30 05:00:39;;;;;;;;;;;;;;;22.27;58.62;101692.44;5086619;28;19978;-70
2021/08/30 05:03:07;;;;;;;;;;;;;;;22.33;57.28;101694.75;5095993;28;19993;-71
2021/08/30 05:05:35;;;;;;;;;;;;;;;22.40;58.22;101688.03;5099684;27;20018;-71
2021/08/30 05:08:04;;;;;;;;;;;;;;;22.50;60.37;101696.44;5094002;28;19984;-69
2021/08/30 05:10:32;;;;;;;;;;;;;;;22.48;59.12;101692.94;5092543;28;19986;-68
2021/08/30 05:13:00;;;;;;;;;;;;;;;22.51;58.73;101692.75;5088800;28;20128;-66
2021/08/30 05:15:31;;;;;;;;;;;;;;;22.51;58.23;101690.03;5091144;27;19962;-67
2021/08/30 05:17:59;;;;;;;;;;;;;;;22.43;54.65;101690.56;5093961;28;19989;-67
2021/08/30 05:20:28;;;;;;;;;;;;;;;22.38;54.51;101696.22;5100396;28;19928;-64
2021/08/30 05:22:56;;;;;;;;;;;;;;;22.30;55.20;101701.19;5097019;28;20503;-72
2021/08/30 05:25:24;;;;;;;;;;;;;;;22.24;54.65;101692.63;5093708;28;19932;-69
2021/08/30 05:27:52;;;;;;;;;;;;;;;22.28;54.94;101700.41;5086616;27;19931;-69
2021/08/30 05:30:20;;;;;;;;;;;;;;;22.29;54.46;101696.75;5089382;28;20402;-70
2021/08/30 05:32:49;;;;;;;;;;;;;;;22.24;53.46;101698.88;5094166;28;19957;-67
2021/08/30 05:35:18;;;;;;;;;;;;;;;22.26;53.08;101696.06;5097021;28;20001;-73
2021/08/30 05:37:46;;;;;;;;;;;;;;;22.17;52.30;101701.09;5093619;28;19954;-66
2021/08/30 05:40:14;;;;;;;;;;;;;;;22.14;53.20;101703.09;5093880;28;19966;-68
2021/08/30 05:42:42;;;;;;;;;;;;;;;22.18;54.25;101693.84;5084078;28;20464;-72
2021/08/30 05:45:11;;;;;;;;;;;;;;;22.21;52.71;101708.00;5088825;28;19938;-68
2021/08/30 05:47:39;;;;;;;;;;;;;;;22.18;52.45;101704.63;5083294;28;20031;-70
2021/08/30 05:50:09;;;;;;;;;;;;;;;22.13;52.74;101704.94;5099875;28;19977;-67
2021/08/30 05:52:38;;;;;;;;;;;;;;;22.09;53.29;101711.47;5096259;28;20137;-68
2021/08/30 05:55:06;;;;;;;;;;;;;;;22.13;53.94;101696.84;5097155;28;20117;-70
2021/08/30 05:57:34;;;;;;;;;;;;;;;22.12;52.83;101703.19;5088311;27;20044;-70
2021/08/30 06:00:28;;;;;;;;;;;;;;;22.16;54.18;101702.03;5092157;28;19959;-71
2021/08/30 06:02:56;;;;;;;;;;;;;;;22.30;57.18;101701.19;5098478;28;20194;-71
2021/08/30 06:05:26;;;;;;;;;;;;;;;22.36;57.53;101700.84;5094121;28;20314;-71
2021/08/30 06:07:54;;;;;;;;;;;;;;;22.40;58.34;101711.44;5088174;28;19931;-74
2021/08/30 06:10:22;;;;;;;;;;;;;;;22.40;57.85;101703.34;5085917;28;20170;-75
2021/08/30 06:12:51;;;;;;;;;;;;;;;22.41;58.03;101697.84;5092097;28;19927;-69
2021/08/30 06:15:19;;;;;;;;;;;;;;;22.40;57.63;101706.91;5098745;28;19928;-69
2021/08/30 06:17:47;;;;;;;;;;;;;;;22.31;57.44;101700.25;5105453;28;19924;-69
2021/08/30 06:20:15;;;;;;;;;;;;;;;22.31;57.09;101702.94;5107603;28;20403;-69
2021/08/30 06:22:44;;;;;;;;;;;;;;;22.33;57.45;101709.09;5103048;28;19932;-69
2021/08/30 06:25:12;;;;;;;;;;;;;;;22.34;57.56;101705.44;5094849;28;19927;-69
2021/08/30 06:27:56;;;;;;;;;;;;;;;22.36;57.80;101711.63;5104173;28;19927;-69
2021/08/30 06:30:24;;;;;;;;;;;;;;;22.38;58.25;101708.84;5106124;28;19931;-69
2021/08/30 06:32:52;;;;;;;;;;;;;;;22.38;58.26;101709.69;5095915;28;19955;-69
2021/08/30 06:35:20;;;;;;;;;;;;;;;22.39;58.32;101705.16;5097915;28;19930;-69
2021/08/30 06:37:50;;;;;;;;;;;;;;;22.42;58.60;101707.69;5101392;28;19938;-69
2021/08/30 06:40:20;;;;;;;;;;;;;;;22.43;58.58;101701.34;5092668;28;20368;-69
2021/08/30 06:42:48;;;;;;;;;;;;;;;22.46;58.72;101702.97;5104675;27;21076;-69
2021/08/30 06:45:18;;;;;;;;;;;;;;;22.47;58.51;101699.28;5103160;28;20637;-69
2021/08/30 06:47:46;;;;;;;;;;;;;;;22.45;58.61;101703.94;5102736;27;19991;-69
2021/08/30 06:50:14;;;;;;;;;;;;;;;22.46;58.30;101695.75;5102632;28;19932;-68
2021/08/30 06:52:42;;;;;;;;;;;;;;;22.48;58.39;101701.03;5101499;28;19934;-68
2021/08/30 06:55:12;;;;;;;;;;;;;;;22.48;58.57;101696.53;5096003;28;19960;-69
2021/08/30 06:57:40;;;;;;;;;;;;;;;22.50;58.68;101702.66;5133115;27;20250;-69
2021/08/30 07:00:13;;;;;;;;;;;;;;;22.52;58.91;101699.88;5103628;28;19938;-69
2021/08/30 07:02:41;;;;;;;;;;;;;;;22.53;59.12;101696.22;5106189;28;19924;-69
2021/08/30 07:05:09;;;;;;;;;;;;;;;22.54;58.94;101697.97;5102337;28;19977;-69
2021/08/30 07:07:37;;;;;;;;;;;;;;;22.58;58.76;101695.94;5102752;28;20127;-69
2021/08/30 07:10:06;;;;;;;;;;;;;;;22.56;58.82;101693.31;5105670;28;19938;-69
2021/08/30 07:12:35;;;;;;;;;;;;;;;22.58;58.91;101693.25;5101179;27;20235;-70
2021/08/30 07:15:04;;;;;;;;;;;;;;;22.62;58.79;101686.69;5098138;28;19991;-70
2021/08/30 07:17:32;;;;;;;;;;;;;;;22.59;59.12;101687.75;5095808;27;20189;-70
2021/08/30 07:20:00;;;;;;;;;;;;;;;22.60;58.95;101692.19;5085914;28;20008;-70
2021/08/30 07:22:28;;;;;;;;;;;;;;;22.61;58.85;101680.41;5087814;27;19924;-69
2021/08/30 07:24:56;;;;;;;;;;;;;;;22.60;58.41;101684.09;5092692;28;19932;-69
2021/08/30 07:27:24;;;;;;;;;;;;;;;22.61;58.10;101690.34;5096821;27;19935;-69
2021/08/30 07:29:54;;;;;;;;;;;;;;;22.64;57.97;101693.72;5091953;28;19958;-69
2021/08/30 07:32:22;;;;;;;;;;;;;;;22.67;57.83;101692.66;5095853;28;19959;-69
2021/08/30 07:34:50;;;;;;;;;;;;;;;22.68;58.12;101694.38;5115198;27;20888;-70
2021/08/30 07:37:18;;;;;;;;;;;;;;;22.69;58.40;101693.41;5089929;28;20395;-68
2021/08/30 07:39:46;;;;;;;;;;;;;;;22.74;58.33;101691.28;5112730;27;19932;-69
2021/08/30 07:42:14;;;;;;;;;;;;;;;22.76;58.25;101694.78;5095543;27;19956;-69
2021/08/30 07:44:41;;;;;;;;;;;;;;;22.73;58.29;101691.38;5095660;28;19932;-70
2021/08/30 07:47:11;;;;;;;;;;;;;;;22.71;58.00;101695.03;5091790;27;19927;-70
2021/08/30 07:49:39;;;;;;;;;;;;;;;22.73;57.93;101694.09;5086358;28;20548;-71
2021/08/30 07:52:07;;;;;;;;;;;;;;;22.74;58.07;101702.06;5088638;28;19932;-71
2021/08/30 07:54:36;;;;;;;;;;;;;;;22.77;58.07;101698.31;5094464;28;19928;-70
2021/08/30 07:57:04;;;;;;;;;;;;;;;22.80;58.47;101706.19;5091466;27;19932;-70
2021/08/30 07:59:32;;;;;;;;;;;;;;;22.83;58.37;101709.56;5089454;28;19935;-70
2021/08/30 08:02:00;;;;;;;;;;;;;;;22.83;58.27;101700.63;5090947;27;20028;-70
2021/08/30 08:04:29;;;;;;;;;;;;;;;22.85;58.58;101712.16;5083317;28;20042;-70
2021/08/30 08:06:57;;;;;;;;;;;;;;;22.87;58.58;101702.16;5094480;27;19936;-70
2021/08/30 08:09:25;;;;;;;;;;;;;;;22.86;58.15;101709.41;5097659;28;19927;-71
2021/08/30 08:11:53;;;;;;;;;;;;;;;22.83;58.24;101714.97;5091408;28;19981;-70
2021/08/30 08:14:22;;;;;;;;;;;;;;;22.83;58.15;101706.03;5109343;27;20100;-70
2021/08/30 08:16:50;;;;;;;;;;;;;;;22.84;58.26;101711.31;5091265;28;19928;-70
2021/08/30 08:19:18;;;;;;;;;;;;;;;22.85;58.29;101706.78;5084330;28;19970;-70
2021/08/30 08:21:47;;;;;;;;;;;;;;;22.92;58.14;101708.13;5090469;27;19928;-70
2021/08/30 08:24:15;;;;;;;;;;;;;;;22.93;58.44;101707.16;5091669;27;19970;-70
2021/08/30 08:26:43;;;;;;;;;;;;;;;22.93;58.34;101714.38;5098937;27;20320;-71
2021/08/30 08:29:11;;;;;;;;;;;;;;;22.92;58.36;101710.81;5093950;28;20472;-71
2021/08/30 08:31:39;;;;;;;;;;;;;;;22.90;58.46;101712.75;5089221;28;19932;-71
2021/08/30 08:34:07;;;;;;;;;;;;;;;22.89;58.25;101711.03;5112940;27;19928;-70
2021/08/30 08:36:38;;;;;;;;;;;;;;;22.89;57.94;101719.13;5090495;28;19939;-70
2021/08/30 08:39:08;;;;;;;;;;;;;;;22.92;57.79;101716.22;5088118;28;19932;-70
2021/08/30 08:41:37;;;;;;;;;;;;;;;22.94;57.87;101714.28;5094379;28;19938;-70
2021/08/30 08:44:07;;;;;;;;;;;;;;;22.96;58.08;101725.00;5121427;27;20304;-70
2021/08/30 08:46:38;;;;;;;;;;;;;;;22.98;58.18;101709.56;5084207;27;20151;-70
2021/08/30 08:49:07;;;;;;;;;;;;;;;22.92;58.42;101723.47;5088191;28;19932;-70
2021/08/30 08:51:36;;;;;;;;;;;;;;;22.95;58.41;101723.25;5092916;28;19932;-70
2021/08/30 08:54:05;;;;;;;;;;;;;;;23.01;57.91;101730.97;5090848;28;19938;-70
2021/08/30 08:56:35;;;;;;;;;;;;;;;23.05;57.54;101721.69;5098034;28;20477;-71
2021/08/30 08:59:03;;;;;;;;;;;;;;;23.03;57.85;101719.09;5084151;28;20032;-71
2021/08/30 09:01:32;;;;;;;;;;;;;;;23.08;57.75;101721.47;5088560;28;19942;-70
2021/08/30 09:04:00;;;;;;;;;;;;;;;23.12;57.70;101719.47;5091006;27;19987;-70
2021/08/30 09:06:30;;;;;;;;;;;;;;;23.03;57.67;101726.31;5091463;28;19998;-71
2021/08/30 09:09:00;;;;;;;;;;;;;;;23.10;57.67;101721.38;5091090;28;20663;-71
2021/08/30 09:11:38;;;;;;;;;;;;;;;23.11;57.44;101723.97;5093635;28;20016;-71
2021/08/30 09:14:13;;;;;;;;;;;;;;;23.11;57.14;101723.97;5084655;28;19938;-70
2021/08/30 09:16:41;;;;;;;;;;;;;;;23.08;57.38;101726.03;5088203;28;19940;-71
2021/08/30 09:19:10;;;;;;;;;;;;;;;23.15;57.14;101727.38;5091888;28;19936;-70
2021/08/30 09:21:42;;;;;;;;;;;;;;;23.15;57.25;101725.56;5092652;28;20026;-70
2021/08/30 09:24:11;;;;;;;;;;;;;;;23.15;57.34;101724.69;5091666;27;19985;-70
2021/08/30 09:26:47;;;;;;;;;;;;;;;23.16;57.47;101723.72;5095492;28;20631;-71
2021/08/30 09:29:16;;;;;;;;;;;;;;;23.19;57.47;101718.09;5086434;28;19950;-70
2021/08/30 09:31:55;;;;;;;;;;;;;;;23.06;57.46;101712.63;5091493;28;19935;-70
2021/08/30 09:34:27;;;;;;;;;;;;;;;23.09;57.12;101717.81;5097176;28;19950;-70
2021/08/30 09:36:55;;;;;;;;;;;;;;;23.16;57.14;101711.06;5087676;28;19951;-70
2021/08/30 09:39:23;;;;;;;;;;;;;;;23.17;57.31;101720.91;5090424;28;19931;-70
2021/08/30 09:41:53;;;;;;;;;;;;;;;23.24;57.14;101720.53;5104571;27;21055;-70
2021/08/30 09:44:25;;;;;;;;;;;;;;;23.25;57.28;101719.56;5086989;28;21252;-70
2021/08/30 09:46:53;;;;;;;;;;;;;;;23.13;57.53;101722.06;5097281;28;19928;-70
2021/08/30 09:49:23;;;;;;;;;;;;;;;23.12;57.11;101717.63;5092580;28;19935;-70
2021/08/30 09:51:52;;;;;;;;;;;;;;;23.04;57.26;101717.25;5091006;28;19938;-70
2021/08/30 09:54:23;;;;;;;;;;;;;;;23.00;57.17;101713.03;5088224;28;19928;-70
2021/08/30 09:56:53;;;;;;;;;;;;;;;23.13;56.46;101713.97;5088950;28;19950;-70
2021/08/30 09:59:22;;;;;;;;;;;;;;;23.26;56.03;101715.88;5092198;28;19928;-71
2021/08/30 10:01:51;;;;;;;;;;;;;;;23.30;55.77;101699.38;5090754;28;20290;-70
2021/08/30 10:04:21;;;;;;;;;;;;;;;23.37;55.98;101716.03;5092894;28;19959;-70
2021/08/30 10:06:49;;;;;;;;;;;;;;;23.41;55.84;101711.31;5090176;28;19932;-70
2021/08/30 10:09:18;;;;;;;;;;;;;;;23.30;56.10;101712.03;5097609;28;19939;-70
2021/08/30 10:11:47;;;;;;;;;;;;;;;23.22;56.29;101709.81;5088146;27;19939;-70
2021/08/30 10:14:18;;;;;;;;;;;;;;;23.23;56.02;101708.84;5089457;28;19939;-70
2021/08/30 10:16:48;;;;;;;;;;;;;;;23.36;55.51;101698.97;5092326;27;19927;-70
2021/08/30 10:19:25;;;;;;;;;;;;;;;23.32;55.72;101707.38;5094360;28;19927;-70
2021/08/30 10:21:53;;;;;;;;;;;;;;;23.40;55.65;101713.13;5096456;28;19931;-69
2021/08/30 10:24:21;;;;;;;;;;;;;;;23.23;56.45;101714.25;5091997;27;19932;-70
2021/08/30 10:26:50;;;;;;;;;;;;;;;23.14;56.45;101718.44;5093912;28;19975;-69
2021/08/30 10:29:19;;;;;;;;;;;;;;;23.23;55.82;101718.78;5103400;28;20997;-70
2021/08/30 10:31:48;;;;;;;;;;;;;;;23.24;55.66;101717.81;5091700;28;20080;-70
2021/08/30 10:34:24;;;;;;;;;;;;;;;23.17;55.51;101710.13;5095611;28;20014;-70
2021/08/30 10:36:52;;;;;;;;;;;;;;;23.12;55.88;101712.22;5105896;27;19928;-71
2021/08/30 10:39:20;;;;;;;;;;;;;;;23.19;55.66;101710.00;5088239;28;19984;-71
2021/08/30 10:41:50;;;;;;;;;;;;;;;23.19;56.12;101701.91;5086522;28;20008;-70
2021/08/30 10:44:20;;;;;;;;;;;;;;;23.18;56.26;101713.69;5091883;28;20195;-70
2021/08/30 10:46:50;;;;;;;;;;;;;;;23.16;56.20;101707.53;5097995;28;19932;-70
2021/08/30 10:49:19;;;;;;;;;;;;;;;23.12;56.44;101708.66;5095817;28;19935;-70
2021/08/30 10:51:48;;;;;;;;;;;;;;;23.12;56.15;101706.81;5096706;28;20331;-70
2021/08/30 10:54:18;;;;;;;;;;;;;;;23.10;55.94;101713.28;5088223;28;19941;-70
2021/08/30 10:56:57;;;;;;;;;;;;;;;23.15;55.70;101706.66;5089077;28;19939;-71
2021/08/30 10:59:27;;;;;;;;;;;;;;;23.14;55.90;101717.53;5096014;27;19927;-71
2021/08/30 11:01:58;;;;;;;;;;;;;;;23.13;55.99;101710.41;5094762;28;20030;-70
2021/08/30 11:04:31;;;;;;;;;;;;;;;23.14;56.16;101710.31;5096193;28;19976;-71
2021/08/30 11:06:59;;;;;;;;;;;;;;;23.13;56.43;101711.25;5118541;27;20239;-70
2021/08/30 11:09:27;;;;;;;;;;;;;;;23.10;56.04;101702.50;5088574;28;19953;-71
2021/08/30 11:11:55;;;;;;;;;;;;;;;23.07;56.13;101708.94;5093281;28;19939;-71
2021/08/30 11:14:23;;;;;;;;;;;;;;;23.06;55.94;101712.63;5099442;28;20429;-71
2021/08/30 11:16:56;;;;;;;;;;;;;;;23.07;56.02;101710.78;5092059;28;19932;-70
2021/08/30 11:19:25;;;;;;;;;;;;;;;23.17;55.86;101706.56;5089881;27;20035;-68
2021/08/30 11:21:54;;;;;;;;;;;;;;;23.21;55.94;101706.25;5064423;28;20002;-69
2021/08/30 11:24:24;;;;;;;;;;;;;;;23.21;55.71;101713.50;5082930;27;19935;-70
2021/08/30 11:26:52;;;;;;;;;;;;;;;23.23;55.65;101707.97;5089127;28;19969;-70
2021/08/30 11:29:21;;;;;;;;;;;;;;;23.30;55.74;101709.31;5094279;28;19932;-70
2021/08/30 11:31:49;;;;;;;;;;;;;;;23.38;55.13;101701.56;5090669;27;20597;-70
2021/08/30 11:34:29;;;;;;;;;;;;;;;23.24;55.22;101713.28;5093077;28;19928;-70
2021/08/30 11:36:58;;;;;;;;;;;;;;;23.19;55.53;101715.41;5089097;28;19939;-70
2021/08/30 11:39:27;;;;;;;;;;;;;;;23.17;55.21;101710.13;5091218;27;19935;-70
2021/08/30 11:41:56;;;;;;;;;;;;;;;23.18;55.60;101714.56;5092520;28;20011;-70
2021/08/30 11:44:25;;;;;;;;;;;;;;;23.23;55.67;101706.13;5094332;28;19954;-70
2021/08/30 11:46:55;;;;;;;;;;;;;;;23.36;55.41;101703.50;5097323;27;20037;-70
2021/08/30 11:49:24;;;;;;;;;;;;;;;23.28;55.43;101711.25;5086088;27;20005;-70
2021/08/30 11:51:54;;;;;;;;;;;;;;;23.22;55.41;101707.13;5120338;27;20567;-69
2021/08/30 11:54:27;;;;;;;;;;;;;;;23.44;54.46;101703.88;5095897;27;20007;-70
2021/08/30 11:56:56;;;;;;;;;;;;;;;23.58;53.73;101702.06;5089738;27;19951;-70
2021/08/30 11:59:25;;;;;;;;;;;;;;;23.65;53.39;101698.84;5092926;28;19927;-70
2021/08/30 12:01:53;;;;;;;;;;;;;;;21.85;58.96;101697.66;5096525;28;19932;-69
2021/08/30 12:04:22;;;;;;;;;;;;;;;20.88;62.94;101701.38;5091932;28;20490;-69
2021/08/30 12:06:51;;;;;;;;;;;;;;;20.47;63.43;101705.38;5088902;28;19923;-69
2021/08/30 12:09:21;;;;;;;;;;;;;;;20.40;63.70;101695.91;5090966;28;19932;-69
2021/08/30 12:11:50;;;;;;;;;;;;;;;20.19;63.58;101701.47;5090564;28;19932;-69
2021/08/30 12:14:20;;;;;;;;;;;;;;;20.01;63.88;101705.13;5092237;28;19958;-69
2021/08/30 12:16:49;;;;;;;;;;;;;;;19.70;62.98;101709.38;5093323;28;20434;-68
2021/08/30 12:19:17;;;;;;;;;;;;;;;19.19;61.72;101711.88;5081773;28;19932;-69
2021/08/30 12:21:49;;;;;;;;;;;;;;;18.86;60.70;101708.00;5119455;27;20472;-69
2021/08/30 12:24:19;;;;;;;;;;;;;;;18.83;60.23;101705.50;5105693;27;20498;-69
2021/08/30 12:26:51;;;;;;;;;;;;;;;19.14;58.29;101712.09;5090833;27;20022;-69
2021/08/30 12:29:19;;;;;;;;;;;;;;;19.51;59.61;101704.06;5092094;28;20226;-69
2021/08/30 12:31:51;;;;;;;;;;;;;;;19.66;60.46;101700.59;5092744;28;19938;-69
2021/08/30 12:34:22;;;;;;;;;;;;;;;19.78;60.65;101699.09;5082898;28;20279;-69
2021/08/30 12:36:50;;;;;;;;;;;;;;;19.76;60.25;101711.72;5086372;27;19951;-69
2021/08/30 12:39:18;;;;;;;;;;;;;;;19.61;60.34;101704.44;5093102;28;19932;-69
2021/08/30 12:41:46;;;;;;;;;;;;;;;19.43;60.04;101708.94;5091977;28;19939;-69
2021/08/30 12:44:15;;;;;;;;;;;;;;;19.40;59.65;101707.28;5089646;28;20124;-69
2021/08/30 12:46:43;;;;;;;;;;;;;;;19.41;59.42;101707.19;5089416;28;20088;-69
2021/08/30 12:49:11;;;;;;;;;;;;;;;19.35;59.26;101707.47;5081999;28;19928;-69